sensor_id;sensor_type;location;lat;lon;timestamp;pressure;altitude;pressure_sealevel;temperature;humidity
59831;BME280;45711;50.108;13.712;2023-02-28T01:02:32;98911.41;;;-2.41;81.69
59831;BME280;45711;50.108;13.712;2023-02-28T01:05:03;98915.38;;;-2.45;80.81
59831;BME280;45711;50.108;13.712;2023-02-28T01:07:30;98913.41;;;-2.43;81.26
59831;BME280;45711;50.108;13.712;2023-02-28T01:10:02;98911.94;;;-2.45;80.76
59831;BME280;45711;50.108;13.712;2023-02-28T01:12:30;98915.09;;;-2.58;82.26
59831;BME280;45711;50.108;13.712;2023-02-28T01:14:58;98909.91;;;-2.74;82.27
59831;BME280;45711;50.108;13.712;2023-02-28T01:17:24;98919.22;;;-2.64;83.42
59831;BME280;45711;50.108;13.712;2023-02-28T01:19:57;98911.09;;;-2.85;83.16
59831;BME280;45711;50.108;13.712;2023-02-28T01:22:23;98916.53;;;-2.95;83.05
59831;BME280;45711;50.108;13.712;2023-02-28T01:25:13;98911.56;;;-2.82;83.68
59831;BME280;45711;50.108;13.712;2023-02-28T01:27:42;98902.75;;;-2.97;84.06
59831;BME280;45711;50.108;13.712;2023-02-28T01:30:16;98906.38;;;-2.98;83.87
59831;BME280;45711;50.108;13.712;2023-02-28T01:32:50;98906.69;;;-3.01;84.00
59831;BME280;45711;50.108;13.712;2023-02-28T01:35:23;98910.13;;;-3.00;84.96
59831;BME280;45711;50.108;13.712;2023-02-28T01:37:58;98903.56;;;-2.88;83.84
59831;BME280;45711;50.108;13.712;2023-02-28T01:40:34;98906.03;;;-2.87;84.40
59831;BME280;45711;50.108;13.712;2023-02-28T01:43:02;98904.72;;;-2.91;83.81
59831;BME280;45711;50.108;13.712;2023-02-28T01:45:31;98897.88;;;-3.00;84.25
59831;BME280;45711;50.108;13.712;2023-02-28T01:48:02;98896.06;;;-2.99;84.54
59831;BME280;45711;50.108;13.712;2023-02-28T01:50:37;98895.75;;;-3.05;84.67
59831;BME280;45711;50.108;13.712;2023-02-28T01:53:18;98896.72;;;-2.97;84.71
59831;BME280;45711;50.108;13.712;2023-02-28T01:55:53;98897.38;;;-2.95;84.61
59831;BME280;45711;50.108;13.712;2023-02-28T01:58:24;98897.66;;;-2.82;84.88
59831;BME280;45711;50.108;13.712;2023-02-28T02:00:54;98893.88;;;-2.80;84.57
59831;BME280;45711;50.108;13.712;2023-02-28T02:03:25;98889.31;;;-2.86;84.51
59831;BME280;45711;50.108;13.712;2023-02-28T02:06:07;98890.72;;;-2.67;84.56
59831;BME280;45711;50.108;13.712;2023-02-28T02:08:36;98891.38;;;-2.65;84.52
59831;BME280;45711;50.108;13.712;2023-02-28T02:11:11;98882.34;;;-2.62;83.99
59831;BME280;45711;50.108;13.712;2023-02-28T02:14:10;98884.81;;;-2.61;84.86
59831;BME280;45711;50.108;13.712;2023-02-28T02:16:51;98884.28;;;-2.48;84.40
59831;BME280;45711;50.108;13.712;2023-02-28T02:19:50;98877.91;;;-2.62;85.36
59831;BME280;45711;50.108;13.712;2023-02-28T02:22:37;98868.41;;;-2.55;84.63
59831;BME280;45711;50.108;13.712;2023-02-28T02:25:21;98870.97;;;-2.46;84.77
59831;BME280;45711;50.108;13.712;2023-02-28T02:28:22;98876.22;;;-2.46;83.29
59831;BME280;45711;50.108;13.712;2023-02-28T02:31:28;98873.59;;;-2.46;84.16
59831;BME280;45711;50.108;13.712;2023-02-28T02:34:24;98876.88;;;-2.53;84.56
59831;BME280;45711;50.108;13.712;2023-02-28T02:37:08;98873.63;;;-2.55;84.50
59831;BME280;45711;50.108;13.712;2023-02-28T02:39:53;98865.91;;;-2.17;84.80
59831;BME280;45711;50.108;13.712;2023-02-28T02:42:29;98867.56;;;-2.24;83.18
59831;BME280;45711;50.108;13.712;2023-02-28T02:45:07;98870.53;;;-2.27;83.87
59831;BME280;45711;50.108;13.712;2023-02-28T02:47:41;98878.03;;;-2.16;83.27
59831;BME280;45711;50.108;13.712;2023-02-28T02:50:19;98869.53;;;-1.95;83.21
59831;BME280;45711;50.108;13.712;2023-02-28T02:53:04;98871.88;;;-2.00;82.65
59831;BME280;45711;50.108;13.712;2023-02-28T02:55:36;98867.31;;;-2.06;82.65
59831;BME280;45711;50.108;13.712;2023-02-28T02:58:14;98865.69;;;-2.07;82.01
59831;BME280;45711;50.108;13.712;2023-02-28T03:01:03;98873.44;;;-1.91;80.33
59831;BME280;45711;50.108;13.712;2023-02-28T03:04:17;98874.72;;;-1.87;80.95
59831;BME280;45711;50.108;13.712;2023-02-28T03:06:33;98867.00;;;-1.88;80.17
59831;BME280;45711;50.108;13.712;2023-02-28T03:09:20;98870.69;;;-1.97;80.34
59831;BME280;45711;50.108;13.712;2023-02-28T03:11:49;98875.25;;;-1.68;85.13
59831;BME280;45711;50.108;13.712;2023-02-28T03:14:40;98873.38;;;-1.83;79.89
59831;BME280;45711;50.108;13.712;2023-02-28T03:17:41;98878.03;;;-1.70;80.56
59831;BME280;45711;50.108;13.712;2023-02-28T03:20:27;98875.31;;;-1.39;80.37
59831;BME280;45711;50.108;13.712;2023-02-28T03:23:19;98871.97;;;-1.70;81.51
59831;BME280;45711;50.108;13.712;2023-02-28T03:26:01;98872.72;;;-1.85;79.22
59831;BME280;45711;50.108;13.712;2023-02-28T03:28:53;98872.16;;;-1.72;79.00
59831;BME280;45711;50.108;13.712;2023-02-28T03:31:30;98873.03;;;-1.80;79.86
59831;BME280;45711;50.108;13.712;2023-02-28T03:34:04;98881.53;;;-1.02;83.46
59831;BME280;45711;50.108;13.712;2023-02-28T03:39:42;98863.53;;;-1.81;78.70
59831;BME280;45711;50.108;13.712;2023-02-28T03:42:44;98868.34;;;-1.92;80.35
59831;BME280;45711;50.108;13.712;2023-02-28T03:45:32;98864.34;;;-1.80;79.67
59831;BME280;45711;50.108;13.712;2023-02-28T03:48:11;98864.81;;;-1.77;82.74
59831;BME280;45711;50.108;13.712;2023-02-28T03:50:42;98866.78;;;-1.41;83.70
59831;BME280;45711;50.108;13.712;2023-02-28T03:53:20;98861.94;;;-1.67;79.83
59831;BME280;45711;50.108;13.712;2023-02-28T03:56:02;98863.53;;;-2.04;78.79
59831;BME280;45711;50.108;13.712;2023-02-28T04:02:27;98857.47;;;-2.04;78.35
59831;BME280;45711;50.108;13.712;2023-02-28T04:04:53;98872.25;;;-2.11;78.74
59831;BME280;45711;50.108;13.712;2023-02-28T04:07:46;98882.81;;;-1.96;79.57
59831;BME280;45711;50.108;13.712;2023-02-28T04:10:28;98877.22;;;-2.16;78.14
59831;BME280;45711;50.108;13.712;2023-02-28T04:12:58;98878.25;;;-2.25;78.75
59831;BME280;45711;50.108;13.712;2023-02-28T04:15:26;98878.84;;;-2.15;79.29
59831;BME280;45711;50.108;13.712;2023-02-28T04:18:00;98868.25;;;-1.76;81.45
59831;BME280;45711;50.108;13.712;2023-02-28T04:20:59;98871.63;;;-2.13;77.28
59831;BME280;45711;50.108;13.712;2023-02-28T04:34:42;98874.69;;;-2.10;80.07
59831;BME280;45711;50.108;13.712;2023-02-28T04:37:24;98887.78;;;-2.33;77.43
59831;BME280;45711;50.108;13.712;2023-02-28T04:40:42;98886.75;;;-2.23;79.02
59831;BME280;45711;50.108;13.712;2023-02-28T04:43:32;98872.50;;;-2.52;77.80
59831;BME280;45711;50.108;13.712;2023-02-28T04:48:56;98878.16;;;-2.40;77.14
59831;BME280;45711;50.108;13.712;2023-02-28T04:54:45;98880.47;;;-2.45;77.15
59831;BME280;45711;50.108;13.712;2023-02-28T04:57:17;98881.19;;;-2.60;77.76
59831;BME280;45711;50.108;13.712;2023-02-28T04:59:45;98886.06;;;-2.17;81.88
59831;BME280;45711;50.108;13.712;2023-02-28T05:02:24;98876.34;;;-2.40;80.23
59831;BME280;45711;50.108;13.712;2023-02-28T05:04:50;98876.84;;;-2.44;77.22
59831;BME280;45711;50.108;13.712;2023-02-28T05:07:56;98882.81;;;-2.59;77.68
59831;BME280;45711;50.108;13.712;2023-02-28T05:10:55;98886.75;;;-2.23;78.60
59831;BME280;45711;50.108;13.712;2023-02-28T05:13:29;98896.25;;;-2.62;77.50
59831;BME280;45711;50.108;13.712;2023-02-28T05:16:32;98893.03;;;-2.72;78.55
59831;BME280;45711;50.108;13.712;2023-02-28T05:19:39;98901.34;;;-2.60;78.38
59831;BME280;45711;50.108;13.712;2023-02-28T05:25:06;98907.63;;;-2.69;77.58
59831;BME280;45711;50.108;13.712;2023-02-28T05:27:56;98911.16;;;-2.54;77.68
59831;BME280;45711;50.108;13.712;2023-02-28T05:34:02;98916.13;;;-2.75;77.56
59831;BME280;45711;50.108;13.712;2023-02-28T05:36:51;98918.97;;;-2.93;78.23
59831;BME280;45711;50.108;13.712;2023-02-28T05:39:27;98921.53;;;-2.69;80.50
59831;BME280;45711;50.108;13.712;2023-02-28T05:41:55;98919.94;;;-2.86;77.93
59831;BME280;45711;50.108;13.712;2023-02-28T05:44:35;98927.38;;;-2.59;77.96
59831;BME280;45711;50.108;13.712;2023-02-28T05:50:49;98925.44;;;-2.65;81.62
59831;BME280;45711;50.108;13.712;2023-02-28T05:54:00;98924.19;;;-2.93;78.91
59831;BME280;45711;50.108;13.712;2023-02-28T05:56:18;98929.25;;;-2.92;79.13
59831;BME280;45711;50.108;13.712;2023-02-28T05:59:22;98940.88;;;-2.78;79.23
59831;BME280;45711;50.108;13.712;2023-02-28T06:02:17;98928.44;;;-2.84;77.88
59831;BME280;45711;50.108;13.712;2023-02-28T06:04:57;98944.97;;;-2.92;78.28
59831;BME280;45711;50.108;13.712;2023-02-28T06:07:54;98941.31;;;-2.66;78.08
59831;BME280;45711;50.108;13.712;2023-02-28T06:11:11;98944.16;;;-2.92;79.66
59831;BME280;45711;50.108;13.712;2023-02-28T06:14:26;98956.69;;;-2.55;80.73
59831;BME280;45711;50.108;13.712;2023-02-28T06:24:14;98964.09;;;-1.19;71.47
59831;BME280;45711;50.108;13.712;2023-02-28T07:23:34;99021.41;;;2.77;56.17
59831;BME280;45711;50.108;13.712;2023-02-28T07:26:25;99021.03;;;2.94;55.08
59831;BME280;45711;50.108;13.712;2023-02-28T07:32:23;99027.13;;;3.67;54.89
59831;BME280;45711;50.108;13.712;2023-02-28T07:35:09;99025.72;;;3.12;53.61
59831;BME280;45711;50.108;13.712;2023-02-28T07:39:27;99027.34;;;3.46;53.65
59831;BME280;45711;50.108;13.712;2023-02-28T07:41:13;99031.88;;;4.17;52.12
59831;BME280;45711;50.108;13.712;2023-02-28T16:50:28;98917.97;;;1.45;56.95
59831;BME280;45711;50.108;13.712;2023-02-28T16:53:14;98916.41;;;1.57;56.36
59831;BME280;45711;50.108;13.712;2023-02-28T16:55:40;98921.06;;;1.55;56.78
59831;BME280;45711;50.108;13.712;2023-02-28T16:58:06;98924.59;;;1.34;56.75
59831;BME280;45711;50.108;13.712;2023-02-28T17:00:33;98917.03;;;1.24;58.83
59831;BME280;45711;50.108;13.712;2023-02-28T17:02:59;98927.78;;;1.23;57.66
59831;BME280;45711;50.108;13.712;2023-02-28T17:05:26;98924.44;;;1.08;57.45
59831;BME280;45711;50.108;13.712;2023-02-28T17:07:53;98933.59;;;0.84;58.66
59831;BME280;45711;50.108;13.712;2023-02-28T17:10:21;98930.75;;;0.57;59.81
59831;BME280;45711;50.108;13.712;2023-02-28T17:12:46;98928.50;;;0.82;59.22
59831;BME280;45711;50.108;13.712;2023-02-28T17:15:14;98933.94;;;1.02;61.49
59831;BME280;45711;50.108;13.712;2023-02-28T17:17:43;98939.00;;;0.75;59.58
